createdAt,value
2023-04-11T00:01:04.925Z,127.10
2023-04-11T00:03:33.103Z,122.10
2023-04-11T00:06:01.109Z,119.60
2023-04-11T00:08:28.993Z,118.80
2023-04-11T00:10:56.803Z,120.50
2023-04-11T00:13:26.590Z,100.30
2023-04-11T00:15:55.905Z,104.10
2023-04-11T00:18:25.595Z,107.60
2023-04-11T00:20:53.480Z,85.60
2023-04-11T00:23:21.329Z,75.00
2023-04-11T00:25:49.211Z,79.20
2023-04-11T00:28:17.024Z,64.10
2023-04-11T00:30:44.903Z,79.30
2023-04-11T00:33:12.650Z,88.60
2023-04-11T00:35:40.874Z,79.80
2023-04-11T00:38:08.711Z,89.20
2023-04-11T00:40:36.574Z,96.40
2023-04-11T00:43:04.375Z,86.90
2023-04-11T00:45:32.737Z,85.40
2023-04-11T00:48:01.542Z,86.40
2023-04-11T00:50:29.547Z,87.80
2023-04-11T00:52:58.104Z,98.90
2023-04-11T00:55:27.262Z,88.90
2023-04-11T00:57:55.706Z,85.30
2023-04-11T01:00:24.180Z,89.70
2023-04-11T01:02:52.655Z,105.30
2023-04-11T01:05:21.077Z,99.50
2023-04-11T01:07:51.416Z,101.30
2023-04-11T01:10:19.498Z,116.90
2023-04-11T01:12:47.388Z,112.60
2023-04-11T01:15:15.608Z,104.30
2023-04-11T01:17:43.558Z,109.30
2023-04-11T01:20:12.999Z,103.50
2023-04-11T01:22:41.848Z,106.10
2023-04-11T01:25:09.930Z,103.50
2023-04-11T01:27:38.052Z,105.20
2023-04-11T01:30:07.050Z,115.30
2023-04-11T01:32:35.297Z,107.50
2023-04-11T01:35:04.459Z,102.20
2023-04-11T01:37:32.209Z,104.30
2023-04-11T01:40:00.642Z,96.10
2023-04-11T01:42:30.142Z,99.30
2023-04-11T01:44:58.264Z,87.00
2023-04-11T01:47:26.121Z,90.10
2023-04-11T01:49:54.168Z,88.50
2023-04-11T01:52:22.012Z,78.60
2023-04-11T01:54:49.842Z,82.40
2023-04-11T01:57:17.605Z,80.70
2023-04-11T01:59:45.497Z,77.00
2023-04-11T02:02:13.398Z,78.90
2023-04-11T02:04:41.278Z,79.90
2023-04-11T02:07:09.093Z,73.40
2023-04-11T02:09:37.260Z,74.40
2023-04-11T02:12:05.705Z,76.80
2023-04-11T02:14:44.804Z,80.20
2023-04-11T02:17:13.352Z,76.90
2023-04-11T02:19:41.582Z,69.40
2023-04-11T02:22:09.470Z,77.80
2023-04-11T02:24:37.863Z,75.70
2023-04-11T02:27:06.179Z,80.00
2023-04-11T02:29:34.357Z,74.70
2023-04-11T02:32:02.327Z,81.20
2023-04-11T02:34:30.906Z,79.20
2023-04-11T02:36:58.796Z,80.60
2023-04-11T02:39:26.819Z,81.80
2023-04-11T02:41:54.785Z,79.50
2023-04-11T02:44:22.759Z,81.80
2023-04-11T02:46:50.546Z,73.40
2023-04-11T02:49:18.472Z,65.30
2023-04-11T02:51:46.308Z,65.90
2023-04-11T02:54:14.109Z,70.90
2023-04-11T02:56:43.402Z,63.90
2023-04-11T02:59:11.219Z,69.70
2023-04-11T03:01:39.346Z,72.10
2023-04-11T03:04:07.388Z,72.20
2023-04-11T03:06:36.051Z,79.50
2023-04-11T03:09:04.153Z,72.90
2023-04-11T03:11:32.100Z,65.20
2023-04-11T03:14:00.176Z,60.10
2023-04-11T03:16:28.319Z,46.20
2023-04-11T03:18:56.436Z,55.10
2023-04-11T03:21:24.951Z,49.80
2023-04-11T03:23:53.229Z,47.80
2023-04-11T03:26:21.862Z,49.50
2023-04-11T03:28:49.645Z,45.70
2023-04-11T03:31:17.832Z,44.10
2023-04-11T03:33:46.469Z,49.60
2023-04-11T03:36:14.383Z,50.20
2023-04-11T03:38:42.229Z,49.80
2023-04-11T03:41:10.096Z,50.20
2023-04-11T03:43:37.952Z,48.30
2023-04-11T03:46:05.915Z,49.00
2023-04-11T03:48:33.799Z,48.20
2023-04-11T03:51:01.650Z,47.90
2023-04-11T03:53:29.656Z,46.20
2023-04-11T03:55:57.584Z,47.30
2023-04-11T03:58:25.427Z,47.70
2023-04-11T04:00:53.217Z,49.60
2023-04-11T04:03:21.162Z,47.50
2023-04-11T04:05:49.029Z,49.70
2023-04-11T04:08:16.842Z,50.30
2023-04-11T04:10:45.029Z,48.00
2023-04-11T04:13:13.032Z,47.50
2023-04-11T04:15:40.839Z,44.90
2023-04-11T04:18:08.766Z,49.40
2023-04-11T04:20:36.609Z,52.10
2023-04-11T04:23:07.140Z,45.60
2023-04-11T04:25:35.173Z,50.80
2023-04-11T04:28:03.374Z,55.10
2023-04-11T04:30:31.187Z,60.00
2023-04-11T04:33:00.039Z,61.70
2023-04-11T04:35:28.181Z,88.40
2023-04-11T04:37:56.174Z,86.40
2023-04-11T04:40:24.031Z,113.50
2023-04-11T04:42:58.642Z,128.00
2023-04-11T04:45:26.757Z,107.40
2023-04-11T04:47:54.693Z,74.90
2023-04-11T04:50:22.653Z,64.70
2023-04-11T04:52:50.692Z,66.70
2023-04-11T04:55:18.481Z,73.30
2023-04-11T04:57:46.240Z,72.10
2023-04-11T05:00:15.286Z,67.00
2023-04-11T05:02:43.041Z,65.70
2023-04-11T05:05:12.409Z,62.60
2023-04-11T05:07:40.924Z,55.90
2023-04-11T05:10:09.440Z,57.50
2023-04-11T05:12:37.456Z,60.20
2023-04-11T05:15:11.361Z,58.50
2023-04-11T05:17:39.272Z,54.00
2023-04-11T05:20:09.098Z,52.00
2023-04-11T05:22:38.111Z,54.10
2023-04-11T05:25:09.046Z,59.60
2023-04-11T05:27:36.915Z,54.00
2023-04-11T05:30:06.021Z,60.20
2023-04-11T05:32:34.027Z,67.70
2023-04-11T05:35:02.166Z,54.30
2023-04-11T05:37:31.306Z,50.80
2023-04-11T05:40:00.252Z,49.40
2023-04-11T05:42:28.172Z,54.20
2023-04-11T05:44:56.157Z,51.60
2023-04-11T05:47:24.008Z,53.50
2023-04-11T05:49:51.885Z,48.00
2023-04-11T05:52:19.673Z,48.40
2023-04-11T05:54:47.546Z,59.40
2023-04-11T05:57:15.318Z,60.70
2023-04-11T05:59:43.134Z,54.80
2023-04-11T06:02:11.062Z,54.50
2023-04-11T06:04:39.258Z,58.40
2023-04-11T06:07:08.590Z,51.60
2023-04-11T06:09:36.844Z,50.00
2023-04-11T06:12:04.960Z,48.10
2023-04-11T06:14:32.983Z,48.50
2023-04-11T06:17:00.803Z,47.00
2023-04-11T06:19:28.563Z,48.60
2023-04-11T06:21:56.545Z,44.00
2023-04-11T06:24:38.560Z,39.20
2023-04-11T06:27:09.923Z,45.10
2023-04-11T06:29:38.880Z,40.90
2023-04-11T06:32:07.863Z,45.80
2023-04-11T06:34:35.758Z,41.80
2023-04-11T06:37:03.651Z,46.40
2023-04-11T06:39:31.620Z,45.40
2023-04-11T06:41:59.394Z,41.10
2023-04-11T06:44:27.369Z,42.30
2023-04-11T06:46:55.552Z,45.60
2023-04-11T06:49:23.421Z,45.20
2023-04-11T06:51:51.773Z,39.00
2023-04-11T06:54:19.648Z,38.20
2023-04-11T06:56:47.724Z,41.20
2023-04-11T06:59:15.827Z,41.40
2023-04-11T07:01:43.725Z,55.10
2023-04-11T07:04:11.731Z,61.90
2023-04-11T07:06:39.714Z,51.70
2023-04-11T07:09:09.685Z,47.30
2023-04-11T07:11:38.652Z,41.30
2023-04-11T07:14:06.923Z,39.80
2023-04-11T07:16:34.907Z,41.70
2023-04-11T07:19:03.686Z,36.30
2023-04-11T07:21:32.536Z,40.10
2023-04-11T07:24:08.265Z,40.50
2023-04-11T07:27:03.875Z,38.50
2023-04-11T07:29:35.195Z,37.50
2023-04-11T07:32:03.102Z,38.00
2023-04-11T07:34:30.806Z,34.30
2023-04-11T07:37:01.090Z,36.90
2023-04-11T07:39:29.235Z,39.60
2023-04-11T07:41:57.239Z,38.40
2023-04-11T07:44:27.160Z,35.70
2023-04-11T07:46:55.409Z,36.70
2023-04-11T07:49:23.404Z,38.20
2023-04-11T07:51:54.906Z,40.00
2023-04-11T07:54:25.336Z,39.00
2023-04-11T07:56:53.193Z,40.50
2023-04-11T07:59:20.966Z,44.10
2023-04-11T08:01:48.991Z,39.70
2023-04-11T08:04:16.956Z,37.90
2023-04-11T08:06:45.181Z,37.50
2023-04-11T08:09:13.766Z,36.00
2023-04-11T08:11:41.701Z,42.50
2023-04-11T08:14:09.516Z,40.10
2023-04-11T08:16:37.513Z,35.90
2023-04-11T08:19:05.364Z,38.70
2023-04-11T08:21:33.542Z,35.10
2023-04-11T08:24:01.502Z,35.30
2023-04-11T08:26:29.548Z,33.70
2023-04-11T08:28:57.985Z,36.30
2023-04-11T08:31:26.941Z,35.50
2023-04-11T08:33:56.179Z,34.80
2023-04-11T08:36:25.803Z,37.10
2023-04-11T08:38:55.360Z,39.70
2023-04-11T08:41:23.497Z,37.80
2023-04-11T08:43:51.411Z,35.10
2023-04-11T08:46:25.804Z,34.00
2023-04-11T08:48:53.784Z,37.10
2023-04-11T08:51:28.981Z,37.80
2023-04-11T08:53:59.697Z,37.00
2023-04-11T08:56:27.965Z,37.80
2023-04-11T08:58:55.769Z,36.80
2023-04-11T09:01:34.322Z,34.50
2023-04-11T09:04:07.519Z,38.10
2023-04-11T09:06:35.576Z,30.70
2023-04-11T09:09:05.684Z,38.80
2023-04-11T09:11:54.645Z,34.30
2023-04-11T09:14:26.989Z,35.00
2023-04-11T09:19:32.181Z,35.80
2023-04-11T09:22:05.906Z,35.50
2023-04-11T09:24:35.601Z,34.00
2023-04-11T09:27:19.634Z,34.80
2023-04-11T09:29:48.828Z,37.20
2023-04-11T09:32:33.980Z,37.10
2023-04-11T09:35:07.971Z,38.20
2023-04-11T09:37:59.323Z,36.70
2023-04-11T09:40:33.450Z,34.30
2023-04-11T09:43:04.260Z,32.90
2023-04-11T09:45:38.324Z,34.30
2023-04-11T09:48:10.519Z,39.30
2023-04-11T09:50:38.733Z,35.60
2023-04-11T09:53:07.023Z,36.10
2023-04-11T09:55:35.114Z,33.30
2023-04-11T09:58:05.909Z,30.60
2023-04-11T10:00:34.060Z,31.20
2023-04-11T10:03:02.426Z,31.20
2023-04-11T10:05:31.797Z,31.10
2023-04-11T10:08:22.915Z,34.80
2023-04-11T10:10:53.024Z,34.40
2023-04-11T10:13:44.613Z,32.90
2023-04-11T10:16:18.840Z,31.90
2023-04-11T10:18:56.419Z,30.60
2023-04-11T10:21:30.292Z,29.50
2023-04-11T10:24:18.253Z,31.10
2023-04-11T10:26:55.335Z,31.50
2023-04-11T10:29:29.602Z,29.20
2023-04-11T10:32:24.093Z,33.30
2023-04-11T10:34:54.768Z,27.50
2023-04-11T10:37:36.119Z,29.70
2023-04-11T10:40:11.360Z,29.70
2023-04-11T10:42:44.862Z,25.50
2023-04-11T10:45:30.008Z,26.50
2023-04-11T10:48:07.707Z,25.10
2023-04-11T10:50:40.663Z,25.40
2023-04-11T10:53:14.357Z,27.50
2023-04-11T10:55:46.240Z,27.80
2023-04-11T10:58:22.659Z,25.60
2023-04-11T11:00:54.148Z,18.80
2023-04-11T11:03:32.458Z,19.40
2023-04-11T11:06:08.906Z,17.30
2023-04-11T11:08:42.725Z,16.80
2023-04-11T11:11:11.889Z,18.40
2023-04-11T11:13:55.931Z,16.30
2023-04-11T11:16:26.470Z,17.10
2023-04-11T11:18:56.691Z,15.60
2023-04-11T11:21:28.414Z,14.50
2023-04-11T11:23:59.659Z,14.50
2023-04-11T11:26:41.621Z,14.90
2023-04-11T11:29:10.718Z,15.30
2023-04-11T11:31:40.087Z,14.40
2023-04-11T11:34:23.059Z,17.00
2023-04-11T11:36:52.938Z,17.40
2023-04-11T11:39:22.866Z,16.40
2023-04-11T11:41:52.287Z,17.80
2023-04-11T11:44:28.264Z,18.70
2023-04-11T11:47:15.016Z,18.40
2023-04-11T11:49:56.891Z,16.70
2023-04-11T11:52:42.516Z,20.50
2023-04-11T11:55:19.445Z,17.10
2023-04-11T11:57:48.975Z,17.00
2023-04-11T12:00:28.385Z,16.40
2023-04-11T12:02:59.404Z,18.20
2023-04-11T12:05:33.203Z,20.10
2023-04-11T12:08:07.359Z,18.10
2023-04-11T12:10:39.506Z,19.80
2023-04-11T12:13:21.276Z,19.30
2023-04-11T12:15:55.709Z,16.60
2023-04-11T12:18:26.419Z,19.10
2023-04-11T12:20:55.609Z,19.30
2023-04-11T12:23:23.623Z,19.80
2023-04-11T12:25:51.413Z,19.80
2023-04-11T12:28:19.225Z,19.90
2023-04-11T12:30:47.040Z,18.60
2023-04-11T12:33:14.922Z,19.40
2023-04-11T12:35:42.834Z,20.70
2023-04-11T12:38:11.949Z,19.90
2023-04-11T12:40:42.758Z,19.30
2023-04-11T12:43:10.530Z,22.50
2023-04-11T12:45:38.302Z,19.30
2023-04-11T12:48:06.539Z,22.00
2023-04-11T12:50:34.300Z,15.90
2023-04-11T12:53:02.060Z,14.50
2023-04-11T12:55:30.334Z,12.60
2023-04-11T12:57:58.150Z,12.10
2023-04-11T13:00:26.008Z,10.00
2023-04-11T13:02:54.656Z,12.20
2023-04-11T13:05:22.696Z,9.40
2023-04-11T13:07:50.732Z,10.40
2023-04-11T13:10:18.732Z,9.50
2023-04-11T13:12:48.028Z,19.80
2023-04-11T13:15:17.145Z,13.90
2023-04-11T13:17:45.723Z,11.50
2023-04-11T13:20:14.344Z,8.40
2023-04-11T13:22:43.462Z,14.60
2023-04-11T13:25:12.418Z,9.10
2023-04-11T13:27:41.758Z,9.10
2023-04-11T13:30:10.740Z,9.70
2023-04-11T13:32:38.720Z,11.10
2023-04-11T13:35:07.587Z,8.90
2023-04-11T13:37:35.536Z,12.40
2023-04-11T13:40:06.795Z,10.00
2023-04-11T13:42:35.298Z,10.20
2023-04-11T13:45:04.593Z,8.80
2023-04-11T13:47:32.455Z,7.00
2023-04-11T13:50:00.430Z,6.90
2023-04-11T13:52:28.444Z,6.50
2023-04-11T13:54:56.758Z,8.90
2023-04-11T13:57:24.667Z,8.40
2023-04-11T13:59:52.780Z,10.50
2023-04-11T14:02:20.894Z,9.60
2023-04-11T14:04:49.505Z,8.00
2023-04-11T14:07:17.733Z,7.00
2023-04-11T14:09:45.978Z,6.70
2023-04-11T14:12:14.058Z,8.30
2023-04-11T14:14:42.240Z,7.60
2023-04-11T14:17:10.757Z,13.70
2023-04-11T14:19:39.085Z,10.00
2023-04-11T14:22:07.148Z,15.20
2023-04-11T14:24:35.137Z,12.80
2023-04-11T14:27:03.223Z,12.40
2023-04-11T14:29:31.247Z,11.00
2023-04-11T14:31:59.127Z,7.70
2023-04-11T14:34:28.267Z,11.40
2023-04-11T14:36:56.203Z,9.60
2023-04-11T14:39:24.700Z,9.40
2023-04-11T14:41:53.630Z,10.10
2023-04-11T14:44:21.562Z,12.90
2023-04-11T14:46:49.547Z,11.30
2023-04-11T14:49:17.495Z,11.70
2023-04-11T14:51:45.882Z,11.30
2023-04-11T14:54:13.955Z,9.40
2023-04-11T14:56:42.213Z,9.70
2023-04-11T14:59:11.486Z,12.00
2023-04-11T15:01:39.588Z,12.10
2023-04-11T15:04:07.689Z,9.70
2023-04-11T15:06:35.589Z,13.50
2023-04-11T15:09:04.752Z,11.30
2023-04-11T15:11:32.768Z,11.70
2023-04-11T15:14:00.921Z,11.20
2023-04-11T15:16:28.770Z,12.20
2023-04-11T15:18:57.150Z,8.80
2023-04-11T15:21:25.016Z,11.60
2023-04-11T15:23:52.871Z,11.30
2023-04-11T15:26:21.493Z,10.50
2023-04-11T15:28:49.305Z,12.40
2023-04-11T15:31:26.782Z,11.70
2023-04-11T15:33:57.270Z,10.40
2023-04-11T15:36:25.353Z,11.20
2023-04-11T15:38:53.209Z,11.10
2023-04-11T15:41:21.290Z,10.90
2023-04-11T15:43:49.178Z,11.10
2023-04-11T15:46:17.417Z,6.30
2023-04-11T15:48:45.764Z,9.00
2023-04-11T15:51:14.311Z,14.80
2023-04-11T15:53:42.612Z,16.30
2023-04-11T15:56:11.493Z,8.50
2023-04-11T15:58:39.372Z,8.60
2023-04-11T16:01:07.304Z,9.10
2023-04-11T16:03:35.902Z,9.90
2023-04-11T16:06:05.852Z,8.10
2023-04-11T16:08:33.678Z,9.50
2023-04-11T16:11:01.545Z,8.90
2023-04-11T16:13:29.514Z,10.40
2023-04-11T16:15:57.402Z,10.60
2023-04-11T16:18:25.710Z,10.80
2023-04-11T16:20:53.590Z,13.60
2023-04-11T16:23:22.086Z,11.90
2023-04-11T16:25:50.046Z,15.10
2023-04-11T16:28:18.211Z,11.40
2023-04-11T16:30:48.501Z,12.90
2023-04-11T16:33:16.362Z,13.10
2023-04-11T16:35:44.451Z,14.10
2023-04-11T16:38:12.863Z,14.70
2023-04-11T16:40:41.080Z,15.40
2023-04-11T16:43:08.984Z,11.20
2023-04-11T16:45:36.798Z,7.30
2023-04-11T16:48:05.972Z,8.10
2023-04-11T16:50:33.959Z,11.50
2023-04-11T16:53:01.916Z,10.70
2023-04-11T16:55:29.830Z,10.90
2023-04-11T16:57:57.666Z,10.30
2023-04-11T17:00:26.065Z,28.60
2023-04-11T17:02:54.100Z,10.80
2023-04-11T17:05:23.995Z,8.90
2023-04-11T17:07:52.016Z,19.70
2023-04-11T17:10:21.128Z,36.10
2023-04-11T17:12:49.234Z,47.10
2023-04-11T17:15:17.333Z,53.90
2023-04-11T17:17:45.405Z,74.00
2023-04-11T17:20:14.744Z,57.10
2023-04-11T17:22:44.415Z,24.10
2023-04-11T17:25:12.402Z,40.60
2023-04-11T17:27:41.187Z,39.00
2023-04-11T17:30:09.867Z,11.70
2023-04-11T17:32:38.772Z,12.20
2023-04-11T17:35:07.261Z,12.90
2023-04-11T17:37:36.078Z,11.70
2023-04-11T17:40:10.885Z,11.60
2023-04-11T17:42:39.186Z,11.80
2023-04-11T17:45:17.830Z,48.20
2023-04-11T17:47:49.820Z,23.50
2023-04-11T17:50:17.893Z,96.10
2023-04-11T17:52:48.406Z,72.70
2023-04-11T17:55:18.164Z,28.80
2023-04-11T17:57:50.275Z,27.90
2023-04-11T18:00:24.309Z,17.70
2023-04-11T18:02:54.913Z,18.00
2023-04-11T18:05:26.425Z,12.80
2023-04-11T18:08:00.432Z,9.60
2023-04-11T18:10:29.283Z,6.40
2023-04-11T18:12:58.566Z,8.90
2023-04-11T18:15:27.832Z,15.20
2023-04-11T18:17:55.956Z,11.20
2023-04-11T18:20:23.956Z,7.80
2023-04-11T18:22:56.344Z,7.30
2023-04-11T18:25:24.469Z,7.90
2023-04-11T18:27:52.259Z,6.80
2023-04-11T18:30:20.192Z,8.80
2023-04-11T18:32:50.620Z,12.70
2023-04-11T18:35:19.303Z,7.30
2023-04-11T18:37:47.538Z,7.90
2023-04-11T18:40:15.987Z,7.20
2023-04-11T18:42:50.609Z,10.10
2023-04-11T18:45:21.869Z,6.60
2023-04-11T18:47:50.227Z,8.10
2023-04-11T18:50:19.080Z,5.70
2023-04-11T18:52:51.485Z,5.40
2023-04-11T18:55:21.879Z,4.50
2023-04-11T18:57:52.536Z,7.70
2023-04-11T19:00:22.127Z,5.10
2023-04-11T19:02:51.100Z,12.20
2023-04-11T19:05:19.597Z,8.90
2023-04-11T19:07:47.593Z,6.60
2023-04-11T19:10:15.854Z,8.60
2023-04-11T19:12:43.849Z,5.50
2023-04-11T19:15:12.705Z,7.00
2023-04-11T19:17:40.818Z,5.80
2023-04-11T19:20:16.578Z,6.20
2023-04-11T19:22:46.256Z,9.50
2023-04-11T19:25:14.781Z,14.80
2023-04-11T19:27:46.216Z,15.30
2023-04-11T19:30:14.238Z,20.40
2023-04-11T19:32:43.598Z,20.50
2023-04-11T19:35:12.602Z,15.50
2023-04-11T19:37:41.042Z,15.60
2023-04-11T19:40:15.890Z,15.70
2023-04-11T19:42:45.103Z,14.60
2023-04-11T19:45:13.128Z,14.50
2023-04-11T19:47:41.846Z,15.40
2023-04-11T19:50:15.158Z,12.00
2023-04-11T19:52:43.373Z,14.00
2023-04-11T19:55:12.611Z,14.80
2023-04-11T19:57:43.767Z,14.70
2023-04-11T20:00:13.957Z,18.70
2023-04-11T20:02:44.869Z,22.90
2023-04-11T20:05:18.474Z,18.30
2023-04-11T20:07:47.027Z,12.10
2023-04-11T20:10:16.199Z,9.00
2023-04-11T20:12:44.164Z,8.60
2023-04-11T20:15:12.187Z,9.70
2023-04-11T20:17:40.234Z,8.20
2023-04-11T20:20:09.016Z,9.90
2023-04-11T20:22:40.394Z,8.70
2023-04-11T20:25:11.663Z,9.10
2023-04-11T20:27:42.074Z,8.50
2023-04-11T20:30:10.752Z,7.60
2023-04-11T20:32:40.477Z,11.30
2023-04-11T20:35:10.245Z,9.90
2023-04-11T20:37:40.179Z,9.90
2023-04-11T20:40:10.329Z,10.00
2023-04-11T20:42:40.194Z,9.60
2023-04-11T20:45:16.444Z,11.40
2023-04-11T20:47:46.387Z,11.80
2023-04-11T20:50:15.919Z,14.20
2023-04-11T20:52:46.760Z,14.00
2023-04-11T20:55:15.655Z,11.50
2023-04-11T20:57:44.801Z,13.60
2023-04-11T21:00:16.913Z,13.10
2023-04-11T21:02:49.853Z,11.50
2023-04-11T21:05:25.253Z,11.60
2023-04-11T21:07:54.531Z,11.60
2023-04-11T21:10:22.746Z,11.90
2023-04-11T21:12:54.373Z,13.40
2023-04-11T21:15:22.612Z,9.60
2023-04-11T21:17:50.808Z,10.60
2023-04-11T21:20:19.677Z,16.60
2023-04-11T21:22:49.704Z,7.50
2023-04-11T21:25:17.650Z,11.20
2023-04-11T21:27:46.827Z,8.50
2023-04-11T21:30:15.020Z,12.50
2023-04-11T21:32:43.058Z,10.80
2023-04-11T21:35:11.860Z,8.30
2023-04-11T21:37:39.876Z,12.20
2023-04-11T21:40:08.422Z,9.70
2023-04-11T21:42:36.429Z,9.20
2023-04-11T21:45:04.808Z,9.30
2023-04-11T21:47:32.643Z,11.80
2023-04-11T21:50:01.033Z,12.70
2023-04-11T21:52:28.911Z,10.10
2023-04-11T21:54:56.771Z,11.20
2023-04-11T21:57:24.550Z,8.70
2023-04-11T21:59:52.376Z,8.50
2023-04-11T22:02:20.328Z,9.40
2023-04-11T22:05:03.965Z,14.20
2023-04-11T22:07:38.414Z,7.80
2023-04-11T22:10:09.613Z,7.00
2023-04-11T22:12:38.463Z,8.70
2023-04-11T22:15:07.779Z,8.80
2023-04-11T22:17:37.235Z,7.80
2023-04-11T22:20:06.889Z,10.60
2023-04-11T22:22:35.367Z,8.90
2023-04-11T22:25:03.358Z,9.90
2023-04-11T22:27:34.472Z,10.40
2023-04-11T22:30:02.630Z,8.80
2023-04-11T22:32:30.642Z,9.20
2023-04-11T22:34:59.903Z,8.00
2023-04-11T22:37:27.939Z,10.40
2023-04-11T22:39:56.258Z,11.10
2023-04-11T22:42:24.960Z,10.00
2023-04-11T22:44:52.897Z,12.40
2023-04-11T22:47:21.847Z,10.20
2023-04-11T22:49:50.304Z,8.20
2023-04-11T22:52:24.318Z,9.40
2023-04-11T22:54:52.321Z,11.00
2023-04-11T22:57:20.543Z,8.30
2023-04-11T22:59:48.488Z,11.50
2023-04-11T23:02:16.494Z,9.80
2023-04-11T23:04:45.117Z,10.90
2023-04-11T23:07:13.007Z,12.20
2023-04-11T23:09:40.785Z,10.10
2023-04-11T23:12:08.831Z,11.30
2023-04-11T23:14:36.636Z,9.10
2023-04-11T23:17:04.540Z,12.50
2023-04-11T23:19:32.391Z,10.20
2023-04-11T23:22:00.293Z,12.00
2023-04-11T23:24:29.056Z,9.70
2023-04-11T23:26:57.131Z,8.00
2023-04-11T23:29:25.164Z,9.90
2023-04-11T23:31:53.060Z,9.30
2023-04-11T23:34:21.057Z,12.80
2023-04-11T23:36:48.899Z,10.40
2023-04-11T23:39:16.766Z,10.30
2023-04-11T23:41:44.972Z,10.30
2023-04-11T23:44:14.457Z,9.10
2023-04-11T23:46:42.349Z,11.80
2023-04-11T23:49:10.266Z,8.00
2023-04-11T23:51:38.236Z,11.20
2023-04-11T23:54:07.328Z,10.80
2023-04-11T23:56:35.192Z,7.50
2023-04-11T23:59:03.428Z,10.20
